Time;durP1;ratioP1;P1;durP2;ratioP2;P2;SDS_P1;SDS_P2;PMS_P1;PMS_P2;Temp;Humidity;BMP_temperature;BMP_pressure;BME280_temperature;BME280_humidity;BME280_pressure;Samples;Min_cycle;Max_cycle;Signal;HPM_P1;HPM_P2
2023/10/09 00:01:17;;;;;;;;;;;15.60;54.80;;;;;;5014147;28;20356;-61
2023/10/09 00:03:44;;;;;;;;;;;15.60;55.30;;;;;;5019703;28;20279;-61
2023/10/09 00:06:13;;;;;;;;;;;15.50;54.80;;;;;;5022149;28;19913;-61
2023/10/09 00:08:39;;;;;;;;;;;15.50;54.80;;;;;;5020790;28;19913;-62
2023/10/09 00:11:16;;;;;;;;;;;15.50;54.90;;;;;;5021681;28;19956;-61
2023/10/09 00:13:52;;;;;;;;;;;15.40;54.90;;;;;;5021286;28;19916;-62
2023/10/09 00:16:42;;;;;;;;;;;15.40;55.00;;;;;;5019640;28;20379;-62
2023/10/09 00:19:17;;;;;;;;;;;15.40;55.00;;;;;;5017117;28;20401;-62
2023/10/09 00:21:44;;;;;;;;;;;15.30;55.60;;;;;;5021899;28;20291;-62
2023/10/09 00:24:13;;;;;;;;;;;15.30;55.00;;;;;;5022414;28;19913;-62
2023/10/09 00:26:47;;;;;;;;;;;15.30;55.00;;;;;;5020896;28;19917;-62
2023/10/09 00:29:16;;;;;;;;;;;15.20;55.00;;;;;;5017070;28;19963;-62
2023/10/09 00:31:49;;;;;;;;;;;15.20;55.10;;;;;;5019806;28;19913;-62
2023/10/09 00:34:22;;;;;;;;;;;15.10;55.10;;;;;;5020194;28;19909;-62
2023/10/09 00:36:50;;;;;;;;;;;15.10;55.20;;;;;;5024719;28;19945;-62
2023/10/09 00:42:06;;;;;;;;;;;15.10;55.20;;;;;;5020120;28;19919;-61
2023/10/09 00:44:38;;;;;;;;;;;15.00;55.30;;;;;;4999028;28;20016;-63
2023/10/09 00:47:20;;;;;;;;;;;15.00;55.30;;;;;;5018385;28;20407;-61
2023/10/09 00:49:47;;;;;;;;;;;15.00;55.40;;;;;;5022506;28;19909;-61
2023/10/09 00:52:22;;;;;;;;;;;14.90;55.40;;;;;;5023224;28;19909;-62
2023/10/09 00:54:51;;;;;;;;;;;14.90;55.40;;;;;;5020196;28;19915;-61
2023/10/09 00:57:18;;;;;;;;;;;14.90;55.40;;;;;;5022836;28;19917;-62
2023/10/09 00:59:46;;;;;;;;;;;14.90;55.40;;;;;;5021819;28;19924;-62
2023/10/09 01:02:11;;;;;;;;;;;14.90;55.50;;;;;;5019119;28;19909;-62
2023/10/09 01:04:40;;;;;;;;;;;14.80;55.40;;;;;;5027621;28;19919;-62
2023/10/09 01:07:15;;;;;;;;;;;14.80;55.50;;;;;;5023880;28;19920;-62
2023/10/09 01:09:44;;;;;;;;;;;14.80;55.60;;;;;;5025110;28;20037;-61
2023/10/09 01:12:16;;;;;;;;;;;14.70;55.50;;;;;;5025275;28;19952;-62
2023/10/09 01:14:42;;;;;;;;;;;14.70;55.60;;;;;;5023874;28;19909;-62
2023/10/09 01:17:08;;;;;;;;;;;14.70;55.70;;;;;;5023120;28;19940;-62
2023/10/09 01:19:34;;;;;;;;;;;14.70;55.90;;;;;;5009422;28;20347;-62
2023/10/09 01:22:21;;;;;;;;;;;14.70;55.70;;;;;;5025914;28;19971;-62
2023/10/09 01:24:49;;;;;;;;;;;14.60;55.70;;;;;;5016647;28;19968;-62
2023/10/09 01:27:15;;;;;;;;;;;14.60;55.80;;;;;;5026167;28;19913;-62
2023/10/09 01:29:45;;;;;;;;;;;14.60;55.90;;;;;;5023704;28;19920;-61
2023/10/09 01:32:18;;;;;;;;;;;14.60;55.90;;;;;;5022884;28;20423;-62
2023/10/09 01:34:45;;;;;;;;;;;14.60;55.90;;;;;;5025583;28;19919;-62
2023/10/09 01:37:18;;;;;;;;;;;14.60;56.00;;;;;;5024166;28;19917;-62
2023/10/09 01:39:48;;;;;;;;;;;14.60;56.10;;;;;;5023973;28;20490;-61
2023/10/09 01:42:23;;;;;;;;;;;14.50;56.10;;;;;;5026536;28;19913;-61
2023/10/09 01:44:49;;;;;;;;;;;14.50;56.10;;;;;;5023009;28;19912;-62
2023/10/09 01:47:18;;;;;;;;;;;14.60;56.20;;;;;;5025727;28;20115;-62
2023/10/09 01:49:43;;;;;;;;;;;14.60;56.30;;;;;;5021110;28;20364;-62
2023/10/09 01:52:10;;;;;;;;;;;14.60;56.30;;;;;;5020968;28;19924;-62
2023/10/09 01:54:36;;;;;;;;;;;14.60;56.30;;;;;;5021260;28;19913;-62
2023/10/09 01:57:12;;;;;;;;;;;14.60;56.30;;;;;;5018472;28;20015;-62
2023/10/09 01:59:49;;;;;;;;;;;14.60;56.40;;;;;;5018966;28;20316;-62
2023/10/09 02:02:33;;;;;;;;;;;14.60;56.30;;;;;;5019991;28;19917;-61
2023/10/09 02:05:09;;;;;;;;;;;14.60;56.30;;;;;;5016979;28;19963;-61
2023/10/09 02:07:40;;;;;;;;;;;14.60;56.40;;;;;;5019537;28;19916;-61
2023/10/09 02:10:21;;;;;;;;;;;14.60;56.40;;;;;;5018516;28;19920;-61
2023/10/09 02:12:47;;;;;;;;;;;14.50;56.40;;;;;;5022547;28;19916;-60
2023/10/09 02:15:15;;;;;;;;;;;14.60;56.50;;;;;;5027268;28;19921;-61
2023/10/09 02:17:51;;;;;;;;;;;14.60;56.50;;;;;;5016629;28;19909;-62
2023/10/09 02:20:28;;;;;;;;;;;14.60;56.50;;;;;;5024846;28;19945;-61
2023/10/09 02:22:54;;;;;;;;;;;14.60;56.50;;;;;;5020812;28;19920;-61
2023/10/09 02:25:21;;;;;;;;;;;14.60;56.50;;;;;;5023272;28;19913;-62
2023/10/09 02:27:53;;;;;;;;;;;14.60;56.50;;;;;;5020298;28;20019;-61
2023/10/09 02:30:27;;;;;;;;;;;14.60;56.50;;;;;;5019456;28;19913;-62
2023/10/09 02:32:58;;;;;;;;;;;14.60;56.50;;;;;;5021130;28;19964;-63
2023/10/09 02:35:37;;;;;;;;;;;14.60;56.50;;;;;;5020141;28;19921;-61
2023/10/09 02:38:06;;;;;;;;;;;14.50;56.50;;;;;;5025142;28;19909;-61
2023/10/09 02:40:40;;;;;;;;;;;14.60;56.60;;;;;;5024617;28;19917;-61
2023/10/09 02:43:06;;;;;;;;;;;14.50;56.60;;;;;;5022154;28;19992;-61
2023/10/09 02:45:34;;;;;;;;;;;14.50;56.70;;;;;;5021817;28;19913;-61
2023/10/09 02:48:08;;;;;;;;;;;14.50;56.60;;;;;;5024188;28;19909;-61
2023/10/09 02:50:38;;;;;;;;;;;14.50;56.60;;;;;;5022613;28;20275;-60
2023/10/09 02:53:09;;;;;;;;;;;14.50;56.70;;;;;;5016768;28;20393;-61
2023/10/09 02:55:38;;;;;;;;;;;14.50;57.30;;;;;;5019264;28;19931;-61
2023/10/09 02:58:10;;;;;;;;;;;14.50;56.70;;;;;;5019893;28;19949;-62
2023/10/09 03:00:36;;;;;;;;;;;14.50;56.70;;;;;;5018854;28;19909;-62
2023/10/09 03:03:06;;;;;;;;;;;14.50;56.70;;;;;;5020564;28;19913;-61
2023/10/09 03:05:32;;;;;;;;;;;14.50;56.80;;;;;;5023421;28;20317;-62
2023/10/09 03:07:59;;;;;;;;;;;14.50;56.80;;;;;;5023194;28;19959;-62
2023/10/09 03:10:25;;;;;;;;;;;14.50;56.80;;;;;;5021916;28;19916;-61
2023/10/09 03:12:51;;;;;;;;;;;14.50;56.90;;;;;;5022179;28;19999;-61
2023/10/09 03:15:18;;;;;;;;;;;14.50;56.90;;;;;;5023661;28;20000;-60
2023/10/09 03:17:44;;;;;;;;;;;14.50;56.90;;;;;;5023172;28;20363;-62
2023/10/09 03:20:13;;;;;;;;;;;14.50;57.00;;;;;;5015532;28;19920;-61
2023/10/09 03:22:40;;;;;;;;;;;14.50;57.00;;;;;;5025032;28;19920;-61
2023/10/09 03:25:11;;;;;;;;;;;14.50;57.00;;;;;;5006133;28;19959;-61
2023/10/09 03:27:45;;;;;;;;;;;14.50;57.10;;;;;;5015898;28;19909;-62
2023/10/09 03:30:22;;;;;;;;;;;14.50;57.10;;;;;;5022271;28;19909;-62
2023/10/09 03:32:50;;;;;;;;;;;14.50;57.10;;;;;;5021061;28;19913;-62
2023/10/09 03:35:28;;;;;;;;;;;14.50;57.20;;;;;;5015055;28;19925;-61
2023/10/09 03:37:57;;;;;;;;;;;14.50;57.20;;;;;;5018195;28;20414;-60
2023/10/09 03:40:23;;;;;;;;;;;14.50;57.20;;;;;;5009893;28;19924;-60
2023/10/09 03:42:49;;;;;;;;;;;14.50;57.20;;;;;;5018551;28;20019;-61
2023/10/09 03:45:31;;;;;;;;;;;14.50;57.30;;;;;;5011219;28;20090;-62
2023/10/09 03:48:11;;;;;;;;;;;14.50;57.30;;;;;;5020705;28;19913;-60
2023/10/09 03:50:37;;;;;;;;;;;14.50;57.30;;;;;;5012692;28;19910;-61
2023/10/09 03:53:11;;;;;;;;;;;14.50;57.30;;;;;;5014240;28;19936;-61
2023/10/09 03:55:39;;;;;;;;;;;14.50;57.40;;;;;;5022397;28;19917;-61
2023/10/09 03:58:06;;;;;;;;;;;14.50;57.40;;;;;;5007599;28;20000;-61
2023/10/09 04:00:34;;;;;;;;;;;14.50;57.40;;;;;;5012787;28;19909;-62
2023/10/09 04:03:00;;;;;;;;;;;14.50;57.40;;;;;;5020253;28;20355;-61
2023/10/09 04:05:26;;;;;;;;;;;14.50;57.30;;;;;;5019193;28;19916;-62
2023/10/09 04:07:53;;;;;;;;;;;14.50;57.40;;;;;;5020743;28;19913;-61
2023/10/09 04:13:10;;;;;;;;;;;14.50;57.30;;;;;;5021543;28;19959;-62
2023/10/09 04:15:36;;;;;;;;;;;14.50;57.30;;;;;;5007451;28;19917;-61
2023/10/09 04:18:03;;;;;;;;;;;14.50;57.40;;;;;;5016408;28;19967;-61
2023/10/09 04:23:04;;;;;;;;;;;14.50;57.50;;;;;;5019085;28;19912;-61
2023/10/09 04:25:40;;;;;;;;;;;14.50;57.50;;;;;;5022083;28;19960;-61
2023/10/09 04:28:09;;;;;;;;;;;14.40;57.50;;;;;;5023784;28;20043;-60
2023/10/09 04:30:42;;;;;;;;;;;14.40;57.40;;;;;;5023449;28;20300;-62
2023/10/09 04:33:20;;;;;;;;;;;14.40;57.50;;;;;;5021679;28;19913;-61
2023/10/09 04:36:11;;;;;;;;;;;14.40;57.50;;;;;;5023494;28;19927;-61
2023/10/09 04:38:34;;;;;;;;;;;14.40;57.40;;;;;;5026530;28;20441;-62
2023/10/09 04:40:59;;;;;;;;;;;14.40;57.50;;;;;;5026278;28;20039;-62
2023/10/09 04:43:26;;;;;;;;;;;14.40;57.40;;;;;;5022650;28;20012;-62
2023/10/09 04:48:38;;;;;;;;;;;14.30;57.50;;;;;;5025394;28;20339;-61
2023/10/09 04:51:22;;;;;;;;;;;14.30;57.50;;;;;;5019865;28;20015;-60
2023/10/09 04:54:12;;;;;;;;;;;14.30;57.60;;;;;;5021643;28;19917;-61
2023/10/09 04:56:51;;;;;;;;;;;14.30;57.50;;;;;;5024173;28;19917;-61
2023/10/09 04:59:18;;;;;;;;;;;14.30;57.60;;;;;;5023799;28;19924;-63
2023/10/09 05:01:46;;;;;;;;;;;14.20;57.70;;;;;;5023333;28;19913;-61
2023/10/09 05:06:56;;;;;;;;;;;14.20;57.70;;;;;;5021331;28;20382;-61
2023/10/09 05:09:22;;;;;;;;;;;14.10;57.60;;;;;;5027917;28;19960;-61
2023/10/09 05:14:17;;;;;;;;;;;14.10;57.70;;;;;;5019285;28;19920;-61
2023/10/09 05:17:15;;;;;;;;;;;14.10;57.80;;;;;;5024799;28;19924;-62
2023/10/09 05:19:54;;;;;;;;;;;14.10;57.80;;;;;;5017313;28;19939;-62
2023/10/09 05:22:29;;;;;;;;;;;14.00;57.90;;;;;;5024359;28;19913;-62
2023/10/09 05:24:58;;;;;;;;;;;14.00;57.80;;;;;;5018564;28;20383;-62
2023/10/09 05:30:26;;;;;;;;;;;14.00;57.90;;;;;;5025623;28;19959;-62
2023/10/09 05:32:58;;;;;;;;;;;14.00;58.00;;;;;;5021250;28;19917;-62
2023/10/09 05:35:39;;;;;;;;;;;13.90;57.90;;;;;;5026012;28;19917;-62
2023/10/09 05:38:23;;;;;;;;;;;13.90;58.00;;;;;;5025341;28;20382;-62
2023/10/09 05:40:53;;;;;;;;;;;13.90;58.10;;;;;;5023620;28;19913;-62
2023/10/09 05:46:09;;;;;;;;;;;13.90;58.20;;;;;;4965373;28;19916;-62
2023/10/09 06:04:16;;;;;;;;;;;13.90;58.40;;;;;;5023343;28;19916;-62
2023/10/09 06:06:45;;;;;;;;;;;14.00;58.50;;;;;;5025861;28;19909;-62
2023/10/09 06:19:26;;;;;;;;;;;14.10;58.70;;;;;;5019344;28;19921;-61
2023/10/09 06:34:57;;;;;;;;;;;14.30;58.80;;;;;;5019910;28;19960;-62
2023/10/09 06:42:33;;;;;;;;;;;14.50;59.00;;;;;;5025006;28;19913;-62
2023/10/09 06:45:00;;;;;;;;;;;14.50;58.90;;;;;;5019909;28;20352;-62
2023/10/09 06:47:25;;;;;;;;;;;14.60;59.00;;;;;;5019507;28;19913;-62
2023/10/09 06:55:32;;;;;;;;;;;14.70;59.00;;;;;;5025138;28;20402;-62
2023/10/09 06:58:01;;;;;;;;;;;14.80;59.10;;;;;;5023745;28;19917;-61
2023/10/09 07:03:14;;;;;;;;;;;14.90;59.10;;;;;;5017745;28;19920;-62
2023/10/09 07:08:37;;;;;;;;;;;15.00;59.00;;;;;;4952076;28;19989;-62
2023/10/09 07:13:55;;;;;;;;;;;15.20;59.00;;;;;;4929049;28;20054;-63
2023/10/09 07:16:28;;;;;;;;;;;15.20;59.10;;;;;;4963786;28;19932;-61
2023/10/09 07:18:54;;;;;;;;;;;15.30;58.90;;;;;;4965226;28;19910;-62
2023/10/09 07:21:27;;;;;;;;;;;15.30;58.90;;;;;;4965326;28;19917;-62
2023/10/09 07:23:56;;;;;;;;;;;15.30;58.90;;;;;;4966514;28;19926;-62
2023/10/09 07:26:36;;;;;;;;;;;15.40;59.00;;;;;;4966376;28;19914;-62
2023/10/09 07:29:16;;;;;;;;;;;15.40;58.90;;;;;;4963427;28;19914;-61
2023/10/09 07:31:45;;;;;;;;;;;15.50;59.10;;;;;;4964767;28;19949;-63
2023/10/09 07:37:10;;;;;;;;;;;15.70;59.00;;;;;;4908102;29;19934;-62
2023/10/09 07:39:35;;;;;;;;;;;15.60;59.00;;;;;;4908878;29;19911;-62
2023/10/09 07:42:15;;;;;;;;;;;15.60;59.00;;;;;;4892216;29;19914;-61
2023/10/09 07:44:52;;;;;;;;;;;15.70;59.00;;;;;;4911522;28;20253;-63
2023/10/09 07:47:45;;;;;;;;;;;15.70;59.00;;;;;;4965516;28;20473;-62
2023/10/09 07:50:11;;;;;;;;;;;15.70;58.90;;;;;;4965129;28;19910;-63
2023/10/09 07:52:43;;;;;;;;;;;15.80;59.00;;;;;;4968391;28;19910;-63
2023/10/09 07:55:25;;;;;;;;;;;15.90;59.00;;;;;;4964008;28;20292;-63
2023/10/09 07:57:52;;;;;;;;;;;15.90;59.00;;;;;;4968950;28;19921;-63
2023/10/09 08:03:02;;;;;;;;;;;16.00;59.00;;;;;;4960622;28;20587;-62
2023/10/09 08:05:33;;;;;;;;;;;16.10;58.90;;;;;;4953600;28;20084;-62
2023/10/09 08:08:29;;;;;;;;;;;16.10;58.90;;;;;;4961094;28;19910;-62
2023/10/09 08:16:21;;;;;;;;;;;16.30;58.90;;;;;;5020848;28;20390;-62
2023/10/09 08:18:50;;;;;;;;;;;16.40;58.90;;;;;;5022473;28;20431;-62
2023/10/09 08:23:48;;;;;;;;;;;16.60;58.90;;;;;;5017586;28;19995;-62
2023/10/09 08:26:14;;;;;;;;;;;16.70;58.80;;;;;;5019062;28;19913;-62
2023/10/09 08:28:42;;;;;;;;;;;16.70;58.80;;;;;;5017749;28;19912;-62
2023/10/09 08:31:19;;;;;;;;;;;16.80;58.80;;;;;;5018292;28;19913;-63
2023/10/09 08:33:58;;;;;;;;;;;16.90;58.70;;;;;;5014912;28;19935;-62
2023/10/09 08:36:28;;;;;;;;;;;17.00;58.70;;;;;;5020374;28;20379;-61
2023/10/09 08:38:58;;;;;;;;;;;17.20;58.80;;;;;;5020105;28;20295;-63
2023/10/09 08:41:25;;;;;;;;;;;17.20;58.50;;;;;;5023453;28;19920;-63
2023/10/09 08:43:51;;;;;;;;;;;17.40;58.30;;;;;;5024277;28;19913;-63
2023/10/09 08:46:20;;;;;;;;;;;17.40;58.10;;;;;;5023010;28;19966;-61
2023/10/09 08:48:47;;;;;;;;;;;17.60;57.80;;;;;;5023808;28;19913;-61
2023/10/09 08:51:14;;;;;;;;;;;17.70;58.00;;;;;;5022248;28;19909;-62
2023/10/09 08:53:42;;;;;;;;;;;17.70;57.60;;;;;;5019225;28;19988;-64
2023/10/09 08:56:09;;;;;;;;;;;17.80;57.50;;;;;;5022922;28;19921;-62
2023/10/09 08:58:37;;;;;;;;;;;17.90;57.50;;;;;;5024066;28;20328;-61
2023/10/09 09:01:02;;;;;;;;;;;17.90;57.20;;;;;;5019714;28;19913;-62
2023/10/09 09:03:37;;;;;;;;;;;18.00;57.30;;;;;;5021124;28;20288;-63
2023/10/09 09:06:04;;;;;;;;;;;18.10;57.50;;;;;;5018320;28;19920;-63
2023/10/09 09:08:31;;;;;;;;;;;18.10;57.30;;;;;;5020447;28;19913;-62
2023/10/09 09:14:12;;;;;;;;;;;18.30;57.40;;;;;;4998549;28;19920;-62
2023/10/09 09:16:44;;;;;;;;;;;18.40;57.30;;;;;;5003326;28;19928;-62
2023/10/09 09:21:40;;;;;;;;;;;18.60;57.20;;;;;;5001135;28;19948;-62
2023/10/09 09:26:58;;;;;;;;;;;18.70;57.00;;;;;;5002170;28;19964;-63
2023/10/09 09:29:36;;;;;;;;;;;18.80;57.10;;;;;;5001981;28;19941;-63
2023/10/09 09:32:15;;;;;;;;;;;18.90;56.80;;;;;;5003594;28;19913;-62
2023/10/09 09:34:48;;;;;;;;;;;19.00;56.60;;;;;;5007206;28;19959;-62
2023/10/09 09:37:20;;;;;;;;;;;19.10;56.70;;;;;;5008019;28;20009;-62
2023/10/09 09:39:51;;;;;;;;;;;19.10;56.50;;;;;;5004665;28;20371;-63
2023/10/09 09:42:18;;;;;;;;;;;19.20;56.40;;;;;;5003355;28;19917;-62
2023/10/09 09:44:44;;;;;;;;;;;19.30;56.40;;;;;;5003062;28;19913;-62
2023/10/09 09:47:14;;;;;;;;;;;19.30;56.30;;;;;;4927904;28;19914;-63
2023/10/09 09:49:42;;;;;;;;;;;19.40;56.30;;;;;;5000756;28;20000;-62
2023/10/09 09:52:11;;;;;;;;;;;19.40;56.30;;;;;;5005080;28;19913;-63
2023/10/09 09:54:40;;;;;;;;;;;19.50;56.30;;;;;;5002755;28;19913;-64
2023/10/09 09:57:10;;;;;;;;;;;19.60;56.40;;;;;;4999925;28;19939;-64
2023/10/09 09:59:49;;;;;;;;;;;19.60;56.40;;;;;;5000722;28;19910;-64
2023/10/09 10:02:20;;;;;;;;;;;19.70;56.20;;;;;;5004030;28;20288;-63
2023/10/09 10:04:50;;;;;;;;;;;19.70;56.20;;;;;;5004124;28;19916;-64
2023/10/09 10:07:17;;;;;;;;;;;19.80;56.30;;;;;;5003574;28;19925;-64
2023/10/09 10:09:44;;;;;;;;;;;19.90;56.30;;;;;;5002386;28;19926;-62
2023/10/09 10:12:11;;;;;;;;;;;20.00;56.30;;;;;;5001187;28;19949;-64
2023/10/09 10:15:37;;;;;;;;;;;20.10;56.30;;;;;;4996697;28;19920;-64
2023/10/09 10:18:05;;;;;;;;;;;20.20;56.50;;;;;;4993183;28;19921;-64
2023/10/09 10:20:31;;;;;;;;;;;20.30;56.20;;;;;;5005261;28;19914;-63
2023/10/09 10:23:19;;;;;;;;;;;20.40;56.20;;;;;;4993601;28;20028;-63
2023/10/09 10:25:58;;;;;;;;;;;20.50;56.30;;;;;;4997054;28;20312;-63
2023/10/09 10:28:45;;;;;;;;;;;20.50;56.10;;;;;;5005762;28;19909;-65
2023/10/09 10:31:13;;;;;;;;;;;20.60;56.00;;;;;;4997498;28;19917;-65
2023/10/09 10:33:54;;;;;;;;;;;20.70;56.00;;;;;;5003099;28;20390;-64
2023/10/09 10:36:23;;;;;;;;;;;20.80;56.00;;;;;;5000836;28;19917;-64
2023/10/09 10:40:02;;;;;;;;;;;21.00;56.20;;;;;;5005258;28;19936;-64
2023/10/09 10:41:57;;;;;;;;;;;21.10;56.20;;;;;;4993285;28;19913;-64
2023/10/09 10:44:38;;;;;;;;;;;21.20;56.20;;;;;;5002411;28;19909;-63
2023/10/09 10:47:05;;;;;;;;;;;21.40;56.10;;;;;;5002151;28;19925;-63
2023/10/09 10:49:40;;;;;;;;;;;21.50;56.00;;;;;;4992853;28;19909;-64
2023/10/09 10:52:17;;;;;;;;;;;21.70;55.90;;;;;;4998246;28;20004;-64
2023/10/09 10:57:19;;;;;;;;;;;21.90;55.50;;;;;;5002741;28;19926;-64
2023/10/09 10:59:45;;;;;;;;;;;22.10;55.10;;;;;;5002549;28;19909;-63
2023/10/09 11:04:42;;;;;;;;;;;22.30;54.20;;;;;;5003218;28;20442;-63
2023/10/09 11:07:24;;;;;;;;;;;22.50;52.50;;;;;;4982034;28;19910;-64
2023/10/09 11:12:38;;;;;;;;;;;22.70;50.50;;;;;;5019526;28;19924;-64
2023/10/09 11:18:19;;;;;;;;;;;22.90;51.50;;;;;;5020110;28;19955;-64
2023/10/09 11:21:45;;;;;;;;;;;23.00;52.10;;;;;;5018161;28;19952;-65
2023/10/09 11:23:53;;;;;;;;;;;23.10;49.00;;;;;;5008748;28;23166;-64
2023/10/09 11:26:28;;;;;;;;;;;23.20;51.00;;;;;;5010131;28;20271;-64
2023/10/09 11:29:23;;;;;;;;;;;23.30;50.50;;;;;;5020837;28;19916;-64
2023/10/09 11:31:59;;;;;;;;;;;23.30;51.30;;;;;;5017442;28;19917;-64
2023/10/09 11:34:31;;;;;;;;;;;23.40;51.50;;;;;;5003023;28;19991;-64
2023/10/09 11:37:01;;;;;;;;;;;23.40;50.40;;;;;;5008158;28;19928;-64
2023/10/09 11:39:38;;;;;;;;;;;23.50;50.10;;;;;;4989432;28;19909;-63
2023/10/09 11:42:07;;;;;;;;;;;23.50;50.70;;;;;;5016024;28;20261;-64
2023/10/09 11:44:39;;;;;;;;;;;23.50;50.40;;;;;;5022463;28;19913;-64
2023/10/09 11:49:56;;;;;;;;;;;23.60;49.30;;;;;;4917576;28;19916;-63
2023/10/09 11:54:58;;;;;;;;;;;23.60;46.70;;;;;;5013917;28;19913;-63
2023/10/09 11:57:30;;;;;;;;;;;23.60;45.80;;;;;;5002665;28;19974;-64
2023/10/09 11:59:59;;;;;;;;;;;23.60;49.60;;;;;;5015925;28;19917;-64
2023/10/09 12:02:26;;;;;;;;;;;23.60;50.10;;;;;;5012897;28;19912;-65
2023/10/09 12:04:51;;;;;;;;;;;23.60;49.90;;;;;;5020454;28;19959;-64
2023/10/09 12:07:20;;;;;;;;;;;23.60;48.90;;;;;;5009949;28;19917;-64
2023/10/09 12:09:47;;;;;;;;;;;23.60;49.20;;;;;;5017495;28;20306;-65
2023/10/09 12:12:13;;;;;;;;;;;23.60;49.80;;;;;;5008654;28;19912;-64
2023/10/09 12:14:39;;;;;;;;;;;23.70;49.70;;;;;;5022096;28;19932;-64
2023/10/09 12:17:05;;;;;;;;;;;23.70;49.70;;;;;;5015101;28;19975;-64
2023/10/09 12:19:34;;;;;;;;;;;23.70;49.20;;;;;;5013094;28;19928;-65
2023/10/09 12:22:00;;;;;;;;;;;23.70;49.60;;;;;;5002305;28;20355;-64
2023/10/09 12:24:27;;;;;;;;;;;23.70;46.30;;;;;;5004865;28;20308;-63
2023/10/09 12:26:53;;;;;;;;;;;23.70;47.90;;;;;;5016917;28;19909;-65
2023/10/09 12:29:19;;;;;;;;;;;23.70;49.20;;;;;;5019133;28;20303;-65
2023/10/09 12:31:45;;;;;;;;;;;23.70;49.30;;;;;;5019328;28;19996;-66
2023/10/09 12:34:15;;;;;;;;;;;23.70;48.70;;;;;;5021927;28;20016;-65
2023/10/09 12:36:43;;;;;;;;;;;23.60;49.00;;;;;;5021662;28;21272;-66
2023/10/09 12:39:17;;;;;;;;;;;23.60;45.90;;;;;;5017649;28;19914;-65
2023/10/09 12:41:43;;;;;;;;;;;23.50;47.90;;;;;;5021618;28;19912;-65
2023/10/09 12:44:18;;;;;;;;;;;23.50;47.90;;;;;;5016425;28;19917;-65
2023/10/09 12:46:51;;;;;;;;;;;23.50;48.00;;;;;;4938583;28;20188;-65
2023/10/09 12:49:26;;;;;;;;;;;23.40;48.70;;;;;;5023825;28;19964;-66
2023/10/09 12:51:53;;;;;;;;;;;23.40;48.80;;;;;;5022306;28;20457;-66
2023/10/09 12:54:20;;;;;;;;;;;23.40;49.10;;;;;;5022181;28;19913;-64
2023/10/09 12:56:48;;;;;;;;;;;23.40;48.50;;;;;;5026139;28;20173;-65
2023/10/09 12:59:14;;;;;;;;;;;23.50;49.10;;;;;;5023381;28;19920;-65
2023/10/09 13:01:43;;;;;;;;;;;23.50;48.90;;;;;;5024425;28;20271;-64
2023/10/09 13:04:15;;;;;;;;;;;23.60;48.80;;;;;;5021992;28;20287;-64
2023/10/09 13:06:46;;;;;;;;;;;23.60;44.20;;;;;;5023465;28;19938;-64
2023/10/09 13:09:13;;;;;;;;;;;23.70;47.90;;;;;;5014548;28;19921;-64
2023/10/09 13:11:40;;;;;;;;;;;23.70;48.40;;;;;;5004988;28;20265;-64
2023/10/09 13:14:27;;;;;;;;;;;23.80;48.10;;;;;;5004075;28;19920;-64
2023/10/09 13:16:52;;;;;;;;;;;23.80;48.20;;;;;;5001592;28;19917;-64
2023/10/09 13:19:18;;;;;;;;;;;24.00;48.50;;;;;;5005981;28;19909;-64
2023/10/09 13:21:44;;;;;;;;;;;24.00;48.40;;;;;;5005576;28;20379;-64
2023/10/09 13:25:55;;;;;;;19.45;4.68;;;24.10;47.80;;;;;;5103351;27;20124;-63
2023/10/09 13:28:20;;;;;;;12.80;4.18;;;24.20;47.20;;;;;;5109788;28;20487;-64
2023/10/09 13:30:50;;;;;;;18.17;5.45;;;24.20;46.70;;;;;;5104141;28;20054;-63
2023/10/09 13:33:17;;;;;;;22.38;5.65;;;24.20;46.00;;;;;;5101399;28;20027;-64
2023/10/09 13:35:50;;;;;;;19.33;5.63;;;24.20;45.20;;;;;;5098815;28;20719;-63
2023/10/09 13:38:16;;;;;;;11.10;4.93;;;24.20;44.90;;;;;;5093158;28;20119;-64
2023/10/09 13:40:42;;;;;;;18.02;5.18;;;24.30;45.10;;;;;;5089436;28;20119;-65
2023/10/09 13:43:16;;;;;;;17.25;4.78;;;24.30;44.70;;;;;;5094253;28;20157;-63
2023/10/09 13:45:48;;;;;;;17.38;6.18;;;24.30;44.30;;;;;;5101847;28;20098;-63
2023/10/09 13:48:17;;;;;;;15.75;4.80;;;24.30;44.40;;;;;;5122138;27;20165;-63
2023/10/09 13:50:43;;;;;;;27.58;6.78;;;24.30;43.80;;;;;;5105929;28;20426;-64
2023/10/09 13:53:11;;;;;;;19.00;5.60;;;24.30;44.30;;;;;;5097407;28;20107;-64
2023/10/09 13:55:43;;;;;;;22.35;5.90;;;24.30;44.10;;;;;;5104658;28;20040;-63
2023/10/09 13:58:20;;;;;;;34.45;6.07;;;24.30;43.70;;;;;;5096870;28;20477;-65
2023/10/09 14:00:46;;;;;;;18.95;5.05;;;24.40;43.60;;;;;;5104117;28;20042;-64
2023/10/09 14:03:13;;;;;;;20.33;5.57;;;24.40;43.80;;;;;;5087440;28;20110;-65
2023/10/09 14:05:51;;;;;;;19.23;5.75;;;24.50;43.50;;;;;;5105585;28;20063;-64
2023/10/09 14:08:21;;;;;;;15.95;4.68;;;24.50;43.40;;;;;;5103671;28;20039;-63
2023/10/09 14:10:48;;;;;;;13.57;4.75;;;24.50;42.90;;;;;;5100230;28;20028;-64
2023/10/09 14:13:16;;;;;;;13.98;5.40;;;24.60;42.90;;;;;;5115047;27;20039;-64
2023/10/09 14:15:43;;;;;;;27.67;6.07;;;24.70;43.10;;;;;;5109864;28;20035;-64
2023/10/09 14:18:11;;;;;;;16.52;5.65;;;24.80;43.10;;;;;;5101825;28;20081;-64
2023/10/09 14:20:38;;;;;;;23.33;5.30;;;24.90;42.80;;;;;;5083178;28;20076;-65
2023/10/09 14:23:06;;;;;;;18.13;5.57;;;25.00;42.90;;;;;;5104056;28;20052;-65
2023/10/09 14:25:37;;;;;;;19.25;5.82;;;25.10;42.30;;;;;;5100035;28;20082;-64
2023/10/09 14:28:07;;;;;;;19.13;5.47;;;25.20;41.80;;;;;;5104361;28;20112;-65
2023/10/09 14:30:43;;;;;;;19.20;5.40;;;25.30;41.90;;;;;;5104114;28;20036;-64
2023/10/09 14:33:12;;;;;;;27.10;5.88;;;25.40;41.70;;;;;;5106403;28;20054;-65
2023/10/09 14:35:42;;;;;;;13.65;6.03;;;25.40;41.40;;;;;;5105158;28;20020;-65
2023/10/09 14:38:15;;;;;;;20.77;5.45;;;25.50;40.70;;;;;;5087313;28;20131;-65
2023/10/09 14:40:44;;;;;;;21.65;5.13;;;25.50;40.80;;;;;;5086779;28;20024;-65
2023/10/09 14:43:18;;;;;;;18.63;5.78;;;25.50;40.10;;;;;;5093878;28;20027;-64
2023/10/09 14:45:48;;;;;;;29.90;5.80;;;25.50;41.10;;;;;;5094890;28;20064;-65
2023/10/09 14:48:25;;;;;;;18.92;5.82;;;25.50;41.00;;;;;;5092967;28;20028;-64
2023/10/09 14:50:53;;;;;;;17.10;5.90;;;25.40;40.60;;;;;;5089891;28;20035;-65
2023/10/09 14:53:19;;;;;;;21.60;6.35;;;25.40;40.80;;;;;;5093987;28;20040;-65
2023/10/09 14:55:47;;;;;;;16.25;5.80;;;25.40;41.30;;;;;;5073277;28;20039;-65
2023/10/09 14:58:13;;;;;;;22.33;5.00;;;25.30;40.30;;;;;;5092139;28;20111;-65
2023/10/09 15:00:46;;;;;;;20.75;5.45;;;25.30;40.20;;;;;;5091847;28;20027;-65
2023/10/09 15:03:14;;;;;;;18.23;5.90;;;25.30;39.80;;;;;;5089575;28;20119;-64
2023/10/09 15:05:41;;;;;;;19.58;5.75;;;25.30;39.70;;;;;;5094470;28;20035;-65
2023/10/09 15:08:10;;;;;;;12.55;4.88;;;25.20;40.00;;;;;;5087878;28;20052;-65
2023/10/09 15:10:48;;;;;;;22.30;5.63;;;25.20;40.20;;;;;;5090243;28;20103;-65
2023/10/09 15:13:17;;;;;;;22.60;6.63;;;25.20;40.30;;;;;;5073435;28;20032;-64
2023/10/09 15:15:44;;;;;;;19.38;6.30;;;25.20;40.70;;;;;;5089196;28;20032;-65
2023/10/09 15:18:13;;;;;;;20.83;5.75;;;25.10;40.30;;;;;;5093497;28;20034;-65
2023/10/09 15:20:40;;;;;;;18.73;6.28;;;25.10;39.90;;;;;;5091269;28;20032;-65
2023/10/09 15:23:07;;;;;;;18.58;5.80;;;25.00;39.80;;;;;;5094243;28;20343;-65
2023/10/09 15:25:34;;;;;;;14.85;5.45;;;25.00;39.70;;;;;;5065139;28;20048;-65
2023/10/09 15:28:00;;;;;;;14.73;5.18;;;24.90;39.80;;;;;;5090706;28;20030;-64
2023/10/09 15:30:28;;;;;;;19.65;5.75;;;24.90;40.00;;;;;;5094133;28;20031;-64
2023/10/09 15:32:56;;;;;;;16.92;5.50;;;24.90;40.30;;;;;;5092981;28;20024;-64
2023/10/09 15:35:22;;;;;;;17.65;5.90;;;24.80;40.20;;;;;;5089325;28;20032;-66
2023/10/09 15:37:52;;;;;;;19.33;6.68;;;24.70;40.60;;;;;;5091915;28;20051;-65
2023/10/09 15:40:23;;;;;;;12.27;4.72;;;24.70;40.80;;;;;;5092851;28;20023;-65
2023/10/09 15:42:50;;;;;;;19.40;5.57;;;24.70;40.70;;;;;;5086213;28;20143;-65
2023/10/09 15:45:21;;;;;;;17.63;5.25;;;24.60;40.00;;;;;;5090580;28;20031;-65
2023/10/09 15:47:47;;;;;;;23.05;5.68;;;24.50;40.10;;;;;;5089790;28;20381;-65
2023/10/09 15:50:14;;;;;;;19.95;6.10;;;24.50;40.80;;;;;;5088287;28;20459;-65
2023/10/09 15:52:40;;;;;;;28.73;6.00;;;24.40;41.20;;;;;;5091376;28;20027;-64
2023/10/09 15:55:13;;;;;;;22.05;6.18;;;24.30;41.20;;;;;;5090294;28;20500;-65
2023/10/09 15:57:42;;;;;;;18.70;5.45;;;24.20;41.40;;;;;;5092277;28;20433;-65
2023/10/09 16:00:17;;;;;;;17.50;4.88;;;24.20;41.70;;;;;;5096740;28;20028;-65
2023/10/09 16:02:52;;;;;;;13.02;4.85;;;24.10;41.90;;;;;;5088636;28;20473;-65
2023/10/09 16:05:19;;;;;;;17.55;6.43;;;24.00;42.30;;;;;;5096323;28;20057;-65
2023/10/09 16:07:45;;;;;;;16.33;6.82;;;23.90;42.50;;;;;;5086699;28;20282;-65
2023/10/09 16:10:11;;;;;;;17.10;7.30;;;23.80;42.80;;;;;;5091731;28;21085;-65
2023/10/09 16:12:38;;;;;;;21.35;6.35;;;23.70;42.80;;;;;;5088984;28;20059;-64
2023/10/09 16:15:05;;;;;;;20.50;5.03;;;23.60;43.10;;;;;;5087675;28;20636;-65